Time;durP1;ratioP1;P1;durP2;ratioP2;P2;SDS_P1;SDS_P2;PMS_P1;PMS_P2;Temp;Humidity;BMP_temperature;BMP_pressure;BME280_temperature;BME280_humidity;BME280_pressure;Samples;Min_cycle;Max_cycle;Signal;HPM_P1;HPM_P2
2023/06/12 00:01:03;;;;;;;;;;;;;;;25.12;43.64;100349.77;103177;1287;62634;-84
2023/06/12 00:03:30;;;;;;;;;;;;;;;25.12;43.68;100346.89;103147;1294;62410;-84
2023/06/12 00:05:59;;;;;;;;;;;;;;;25.12;43.59;100345.29;103371;1291;61398;-84
2023/06/12 00:08:26;;;;;;;;;;;;;;;25.12;43.59;100347.10;103285;1289;63890;-84
2023/06/12 00:10:52;;;;;;;;;;;;;;;25.12;43.67;100348.55;103133;1291;62361;-84
2023/06/12 00:13:18;;;;;;;;;;;;;;;25.11;43.67;100348.05;103332;1288;61388;-84
2023/06/12 00:15:44;;;;;;;;;;;;;;;25.11;43.67;100348.61;103158;1289;61458;-84
2023/06/12 00:18:11;;;;;;;;;;;;;;;25.12;43.71;100351.83;103298;1289;62466;-84
2023/06/12 00:20:36;;;;;;;;;;;;;;;25.11;43.51;100350.96;103200;1289;61433;-84
2023/06/12 00:23:02;;;;;;;;;;;;;;;25.10;43.68;100349.20;103146;1289;62472;-84
2023/06/12 00:25:28;;;;;;;;;;;;;;;25.11;43.67;100351.71;103369;1289;61374;-84
2023/06/12 00:27:53;;;;;;;;;;;;;;;25.11;43.62;100351.34;103161;1289;61365;-85
2023/06/12 00:30:19;;;;;;;;;;;;;;;25.10;43.57;100352.97;103333;1289;61380;-84
2023/06/12 00:32:45;;;;;;;;;;;;;;;25.10;43.71;100351.71;103297;1291;61337;-84
2023/06/12 00:35:10;;;;;;;;;;;;;;;25.10;43.56;100349.95;103231;1287;61454;-84
2023/06/12 00:37:36;;;;;;;;;;;;;;;25.10;43.61;100353.02;103184;1289;61855;-83
2023/06/12 00:40:04;;;;;;;;;;;;;;;25.10;43.72;100356.61;103182;1289;62196;-84
2023/06/12 00:42:41;;;;;;;;;;;;;;;25.10;43.65;100363.63;103274;1289;63694;-84
2023/06/12 00:45:07;;;;;;;;;;;;;;;25.10;43.69;100370.12;103244;1288;65806;-84
2023/06/12 00:47:34;;;;;;;;;;;;;;;25.10;43.71;100370.14;103191;1287;61388;-84
2023/06/12 00:50:00;;;;;;;;;;;;;;;25.10;43.61;100377.67;103366;1289;61465;-84
2023/06/12 00:52:29;;;;;;;;;;;;;;;25.10;43.66;100374.64;103136;1294;61419;-84
2023/06/12 00:54:55;;;;;;;;;;;;;;;25.10;43.62;100373.75;103298;1288;66848;-84
2023/06/12 00:57:22;;;;;;;;;;;;;;;25.09;43.79;100370.01;103162;1290;61505;-84
2023/06/12 00:59:48;;;;;;;;;;;;;;;25.09;43.82;100373.77;103262;1288;61446;-84
2023/06/12 01:02:13;;;;;;;;;;;;;;;25.09;43.71;100378.98;103161;1289;61625;-84
2023/06/12 01:04:42;;;;;;;;;;;;;;;25.09;43.70;100379.77;103331;1291;61280;-84
2023/06/12 01:07:11;;;;;;;;;;;;;;;25.09;43.68;100383.87;102872;1291;61340;-84
2023/06/12 01:09:40;;;;;;;;;;;;;;;25.09;43.76;100384.61;102915;1291;62902;-84
2023/06/12 01:12:06;;;;;;;;;;;;;;;25.09;43.63;100379.95;102846;1292;63983;-83
2023/06/12 01:14:32;;;;;;;;;;;;;;;25.09;43.68;100383.02;102833;1292;62261;-84
2023/06/12 01:17:01;;;;;;;;;;;;;;;25.09;43.72;100381.05;102899;1291;61483;-84
2023/06/12 01:19:27;;;;;;;;;;;;;;;25.09;43.62;100385.02;102930;1296;61752;-84
2023/06/12 01:21:57;;;;;;;;;;;;;;;25.09;43.62;100388.60;102767;1291;61488;-84
2023/06/12 01:24:29;;;;;;;;;;;;;;;25.08;43.65;100388.66;102860;1291;74426;-84
2023/06/12 01:27:18;;;;;;;;;;;;;;;25.08;43.67;100390.45;102982;1291;61449;-84
2023/06/12 01:29:50;;;;;;;;;;;;;;;25.08;43.72;100391.52;102368;1297;61472;-84
2023/06/12 01:32:16;;;;;;;;;;;;;;;25.08;43.64;100390.81;102514;1298;64829;-86
2023/06/12 01:35:02;;;;;;;;;;;;;;;25.08;43.62;100394.05;102410;1303;61411;-84
2023/06/12 01:37:31;;;;;;;;;;;;;;;25.08;43.53;100396.39;102373;1302;61499;-85
2023/06/12 01:39:57;;;;;;;;;;;;;;;25.09;43.66;100398.73;102819;1295;61315;-84
2023/06/12 01:42:27;;;;;;;;;;;;;;;25.08;43.71;100399.86;102701;1299;61497;-84
2023/06/12 01:44:53;;;;;;;;;;;;;;;25.08;43.63;100404.35;102432;1294;64706;-84
2023/06/12 01:47:19;;;;;;;;;;;;;;;25.08;43.78;100410.11;102711;1295;61411;-84
2023/06/12 01:49:44;;;;;;;;;;;;;;;25.07;43.63;100404.05;102680;1295;62509;-84
2023/06/12 01:52:10;;;;;;;;;;;;;;;25.08;43.67;100409.58;102717;1297;61494;-84
2023/06/12 01:54:36;;;;;;;;;;;;;;;25.07;43.74;100418.98;102756;1297;61513;-84
2023/06/12 01:57:02;;;;;;;;;;;;;;;25.07;43.77;100426.20;102792;1295;63909;-84
2023/06/12 01:59:28;;;;;;;;;;;;;;;25.07;43.60;100430.16;102743;1295;61488;-84
2023/06/12 02:01:53;;;;;;;;;;;;;;;25.07;43.69;100432.38;102665;1294;61566;-84
2023/06/12 02:04:19;;;;;;;;;;;;;;;25.07;43.73;100433.23;102611;1300;61401;-84
2023/06/12 02:06:45;;;;;;;;;;;;;;;25.07;43.73;100438.11;102787;1289;61372;-84
2023/06/12 02:09:10;;;;;;;;;;;;;;;25.07;43.70;100438.48;103141;1292;61852;-84
2023/06/12 02:11:36;;;;;;;;;;;;;;;25.06;43.74;100439.60;103128;1294;61435;-84
2023/06/12 02:14:01;;;;;;;;;;;;;;;25.06;43.68;100446.98;103240;1289;61403;-84
2023/06/12 02:16:27;;;;;;;;;;;;;;;25.07;43.73;100449.66;103182;1294;62083;-84
2023/06/12 02:18:53;;;;;;;;;;;;;;;25.06;43.61;100450.42;103129;1292;62385;-85
2023/06/12 02:21:18;;;;;;;;;;;;;;;25.06;43.66;100451.52;103374;1289;61439;-84
2023/06/12 02:23:43;;;;;;;;;;;;;;;25.06;43.68;100459.10;103149;1292;61393;-84
2023/06/12 02:26:09;;;;;;;;;;;;;;;25.06;43.74;100456.94;103359;1289;61375;-84
2023/06/12 02:28:34;;;;;;;;;;;;;;;25.06;43.61;100463.59;103314;1287;61734;-84
2023/06/12 02:31:00;;;;;;;;;;;;;;;25.06;43.75;100463.61;103210;1294;61401;-85
2023/06/12 02:33:27;;;;;;;;;;;;;;;25.05;43.81;100467.60;103331;1289;61358;-85
2023/06/12 02:35:53;;;;;;;;;;;;;;;25.05;43.78;100471.04;103195;1289;62564;-85
2023/06/12 02:38:18;;;;;;;;;;;;;;;25.05;43.73;100466.72;103145;1289;61321;-84
2023/06/12 02:40:44;;;;;;;;;;;;;;;25.05;43.63;100467.45;103212;1294;61403;-84
2023/06/12 02:43:10;;;;;;;;;;;;;;;25.05;43.77;100467.84;103201;1294;61532;-84
2023/06/12 02:45:35;;;;;;;;;;;;;;;25.05;43.81;100465.70;103151;1289;61458;-84
2023/06/12 02:48:02;;;;;;;;;;;;;;;25.04;43.72;100464.48;103253;1288;61879;-84
2023/06/12 02:50:27;;;;;;;;;;;;;;;25.05;43.70;100468.00;103272;1289;62561;-84
2023/06/12 02:52:53;;;;;;;;;;;;;;;25.05;43.88;100469.82;103131;1294;61372;-84
2023/06/12 02:55:18;;;;;;;;;;;;;;;25.04;43.76;100471.86;103373;1291;61721;-84
2023/06/12 02:57:44;;;;;;;;;;;;;;;25.04;43.68;100473.83;103357;1288;61324;-84
2023/06/12 03:00:10;;;;;;;;;;;;;;;25.05;43.80;100471.30;103135;1289;62963;-84
2023/06/12 03:02:36;;;;;;;;;;;;;;;25.05;43.84;100474.54;103101;1294;62491;-84
2023/06/12 03:05:04;;;;;;;;;;;;;;;25.05;43.75;100477.02;103219;1289;61701;-84
2023/06/12 03:07:29;;;;;;;;;;;;;;;25.05;43.61;100480.64;103327;1289;61393;-84
2023/06/12 03:09:55;;;;;;;;;;;;;;;25.05;43.76;100483.51;103256;1289;61416;-84
2023/06/12 03:12:20;;;;;;;;;;;;;;;25.04;43.76;100486.08;103131;1289;61474;-84
2023/06/12 03:14:46;;;;;;;;;;;;;;;25.05;43.70;100486.58;103275;1294;61343;-84
2023/06/12 03:17:12;;;;;;;;;;;;;;;25.04;43.76;100484.09;103332;1289;61294;-84
2023/06/12 03:19:38;;;;;;;;;;;;;;;25.04;43.75;100489.48;103253;1288;62198;-84
2023/06/12 03:22:03;;;;;;;;;;;;;;;25.04;43.73;100486.78;103287;1289;61410;-85
2023/06/12 03:24:29;;;;;;;;;;;;;;;25.05;43.76;100491.98;103126;1292;61330;-85
2023/06/12 03:26:55;;;;;;;;;;;;;;;25.05;43.86;100492.89;103337;1289;61381;-85
2023/06/12 03:29:20;;;;;;;;;;;;;;;25.05;43.77;100498.48;103316;1289;61311;-84
2023/06/12 03:31:46;;;;;;;;;;;;;;;25.05;43.80;100497.19;103279;1289;61852;-84
2023/06/12 03:34:16;;;;;;;;;;;;;;;25.04;43.67;100497.45;103155;1295;61372;-85
2023/06/12 03:36:43;;;;;;;;;;;;;;;25.03;43.71;100495.68;103223;1293;64780;-84
2023/06/12 03:39:09;;;;;;;;;;;;;;;25.04;43.77;100493.48;103295;1289;66864;-85
2023/06/12 03:41:34;;;;;;;;;;;;;;;25.04;43.63;100494.24;102882;1294;61863;-84
2023/06/12 03:44:00;;;;;;;;;;;;;;;25.03;43.67;100497.16;103072;1289;61404;-84
2023/06/12 03:46:26;;;;;;;;;;;;;;;25.03;43.66;100500.80;103170;1290;61400;-84
2023/06/12 03:48:51;;;;;;;;;;;;;;;25.03;43.57;100497.05;103141;1295;61429;-84
2023/06/12 03:51:17;;;;;;;;;;;;;;;25.01;43.68;100498.59;103310;1291;62237;-84
2023/06/12 03:53:42;;;;;;;;;;;;;;;25.01;43.61;100498.84;103174;1289;62392;-84
2023/06/12 03:56:07;;;;;;;;;;;;;;;25.01;43.44;100499.92;103310;1291;61381;-85
2023/06/12 03:58:33;;;;;;;;;;;;;;;25.00;43.47;100498.03;103103;1289;61354;-84
2023/06/12 04:00:59;;;;;;;;;;;;;;;25.00;43.45;100497.14;102888;1287;62418;-84
2023/06/12 04:03:25;;;;;;;;;;;;;;;24.99;43.39;100489.98;103190;1294;62065;-84
2023/06/12 04:05:51;;;;;;;;;;;;;;;24.99;43.41;100485.65;103368;1289;61417;-84
2023/06/12 04:08:17;;;;;;;;;;;;;;;24.99;43.39;100483.35;103573;1289;61380;-85
2023/06/12 04:10:42;;;;;;;;;;;;;;;24.98;43.35;100480.35;103368;1291;61387;-84
2023/06/12 04:13:08;;;;;;;;;;;;;;;24.99;43.34;100483.90;103308;1289;61404;-84
2023/06/12 04:15:33;;;;;;;;;;;;;;;24.99;43.50;100482.98;103391;1291;61387;-84
2023/06/12 04:17:59;;;;;;;;;;;;;;;24.99;43.27;100484.78;103145;1294;61388;-84
2023/06/12 04:20:26;;;;;;;;;;;;;;;24.99;43.45;100486.42;103157;1288;62536;-85
2023/06/12 04:22:52;;;;;;;;;;;;;;;24.99;43.39;100481.73;103144;1294;61356;-84
2023/06/12 04:25:18;;;;;;;;;;;;;;;24.99;43.34;100480.48;103376;1288;61321;-84
2023/06/12 04:27:44;;;;;;;;;;;;;;;24.99;43.09;100484.77;103535;1289;61372;-84
2023/06/12 04:30:11;;;;;;;;;;;;;;;24.99;43.32;100484.98;104157;1294;62017;-84
2023/06/12 04:32:37;;;;;;;;;;;;;;;25.00;43.28;100486.38;103863;1291;62563;-85
2023/06/12 04:35:03;;;;;;;;;;;;;;;25.00;43.27;100491.88;103769;1292;61274;-84
2023/06/12 04:37:29;;;;;;;;;;;;;;;25.01;43.32;100498.98;103836;1292;61456;-84
2023/06/12 04:39:55;;;;;;;;;;;;;;;25.01;43.17;100497.50;103060;1297;61403;-84
2023/06/12 04:42:23;;;;;;;;;;;;;;;25.02;43.14;100503.96;103026;1297;61420;-84
2023/06/12 04:44:48;;;;;;;;;;;;;;;25.02;43.13;100511.84;103122;1292;61448;-84
2023/06/12 04:47:16;;;;;;;;;;;;;;;25.02;43.24;100517.41;103020;1295;61473;-84
2023/06/12 04:49:45;;;;;;;;;;;;;;;25.02;43.14;100516.89;103019;1292;62662;-84
2023/06/12 04:52:12;;;;;;;;;;;;;;;25.02;43.03;100514.94;103037;1292;64795;-84
2023/06/12 04:54:41;;;;;;;;;;;;;;;25.02;42.90;100517.42;103034;1297;65986;-84
2023/06/12 04:57:08;;;;;;;;;;;;;;;25.02;42.95;100521.92;103078;1293;61384;-84
2023/06/12 04:59:37;;;;;;;;;;;;;;;25.02;42.98;100525.71;103327;1292;61353;-84
2023/06/12 05:02:03;;;;;;;;;;;;;;;25.02;42.97;100526.08;104495;1292;64743;-84
2023/06/12 05:04:30;;;;;;;;;;;;;;;25.02;42.85;100526.96;103219;1296;61738;-84
2023/06/12 05:06:56;;;;;;;;;;;;;;;25.03;42.93;100526.02;103402;1289;61397;-84
2023/06/12 05:09:21;;;;;;;;;;;;;;;25.03;43.12;100523.67;103440;1293;61321;-84
2023/06/12 05:11:47;;;;;;;;;;;;;;;25.03;42.87;100529.80;103692;1293;61431;-84
2023/06/12 05:14:12;;;;;;;;;;;;;;;25.02;42.83;100526.42;103636;1289;61435;-84
2023/06/12 05:16:39;;;;;;;;;;;;;;;25.03;43.00;100529.77;103944;1294;61298;-84
2023/06/12 05:19:06;;;;;;;;;;;;;;;25.03;42.85;100536.82;103655;1289;61593;-84
2023/06/12 05:21:31;;;;;;;;;;;;;;;25.03;42.86;100540.60;103303;1288;61384;-84
2023/06/12 05:23:57;;;;;;;;;;;;;;;25.02;42.87;100547.83;103558;1294;61439;-84
2023/06/12 05:26:24;;;;;;;;;;;;;;;25.02;42.80;100548.91;103552;1291;61308;-84
2023/06/12 05:28:50;;;;;;;;;;;;;;;25.03;42.88;100551.92;103671;1289;61474;-84
2023/06/12 05:31:15;;;;;;;;;;;;;;;25.02;42.82;100555.04;103709;1289;61781;-84
2023/06/12 05:33:41;;;;;;;;;;;;;;;25.02;42.89;100556.12;103771;1289;61442;-84
2023/06/12 05:36:08;;;;;;;;;;;;;;;25.02;42.69;100553.23;104290;1288;61374;-83
2023/06/12 05:38:33;;;;;;;;;;;;;;;25.03;42.73;100555.19;104028;1288;65670;-84
2023/06/12 05:41:00;;;;;;;;;;;;;;;25.03;42.75;100554.23;103810;1289;61439;-84
2023/06/12 05:43:25;;;;;;;;;;;;;;;25.03;42.67;100548.13;103428;1290;61420;-84
2023/06/12 05:45:51;;;;;;;;;;;;;;;25.03;42.64;100545.98;103568;1294;61279;-84
2023/06/12 05:48:18;;;;;;;;;;;;;;;25.04;42.68;100547.52;103676;1293;61390;-84
2023/06/12 05:50:43;;;;;;;;;;;;;;;25.04;42.71;100547.17;103650;1289;61382;-85
2023/06/12 05:53:09;;;;;;;;;;;;;;;25.04;42.58;100547.82;104020;1294;59943;-84
2023/06/12 05:55:34;;;;;;;;;;;;;;;25.04;42.52;100544.61;104132;1288;61962;-84
2023/06/12 05:58:00;;;;;;;;;;;;;;;25.03;42.49;100540.21;104023;1289;61391;-84
2023/06/12 06:00:25;;;;;;;;;;;;;;;25.02;42.29;100540.66;103667;1289;61439;-84
2023/06/12 06:02:51;;;;;;;;;;;;;;;25.02;42.24;100540.80;103681;1288;61378;-84
2023/06/12 06:05:17;;;;;;;;;;;;;;;25.04;42.38;100540.33;103707;1288;63074;-84
2023/06/12 06:07:43;;;;;;;;;;;;;;;25.05;42.30;100538.02;103493;1294;61375;-84
2023/06/12 06:10:08;;;;;;;;;;;;;;;25.06;42.39;100534.13;103531;1292;62759;-84
2023/06/12 06:12:34;;;;;;;;;;;;;;;25.07;42.22;100533.89;103521;1294;61367;-84
2023/06/12 06:15:00;;;;;;;;;;;;;;;25.08;42.25;100536.34;103708;1293;61382;-84
2023/06/12 06:17:26;;;;;;;;;;;;;;;25.09;42.16;100539.84;103855;1294;61301;-84
2023/06/12 06:19:52;;;;;;;;;;;;;;;25.10;42.13;100542.62;103614;1288;61519;-84
2023/06/12 06:22:17;;;;;;;;;;;;;;;25.10;42.10;100548.52;103704;1294;61450;-84
2023/06/12 06:24:44;;;;;;;;;;;;;;;25.10;42.07;100543.48;103752;1293;61298;-84
2023/06/12 06:27:10;;;;;;;;;;;;;;;25.12;42.21;100548.59;103681;1288;63226;-84
2023/06/12 06:29:35;;;;;;;;;;;;;;;25.13;42.13;100543.45;103670;1294;61375;-84
2023/06/12 06:32:01;;;;;;;;;;;;;;;25.14;42.05;100541.57;103833;1292;61749;-84
2023/06/12 06:34:27;;;;;;;;;;;;;;;25.14;42.02;100545.15;104088;1288;61376;-84
2023/06/12 06:36:53;;;;;;;;;;;;;;;25.14;41.82;100549.77;103885;1289;61401;-84
2023/06/12 06:39:19;;;;;;;;;;;;;;;25.15;42.02;100548.65;103837;1290;61254;-84
2023/06/12 06:41:45;;;;;;;;;;;;;;;25.15;41.94;100549.56;103828;1295;61500;-84
2023/06/12 06:44:10;;;;;;;;;;;;;;;25.16;42.04;100551.96;104141;1293;61429;-84
2023/06/12 06:46:36;;;;;;;;;;;;;;;25.18;41.91;100550.91;103998;1292;74452;-84
2023/06/12 06:49:02;;;;;;;;;;;;;;;25.17;42.01;100544.66;104234;1289;61438;-84
2023/06/12 06:51:28;;;;;;;;;;;;;;;25.18;41.92;100548.70;103923;1293;61383;-84
2023/06/12 06:53:53;;;;;;;;;;;;;;;25.19;41.91;100549.70;103951;1294;61268;-84
2023/06/12 06:56:19;;;;;;;;;;;;;;;25.20;41.87;100556.27;104020;1292;63432;-85
2023/06/12 06:58:45;;;;;;;;;;;;;;;25.21;41.89;100556.01;104194;1290;61385;-84
2023/06/12 07:01:11;;;;;;;;;;;;;;;25.21;41.84;100558.54;103989;1290;61289;-85
2023/06/12 07:03:37;;;;;;;;;;;;;;;25.22;41.91;100553.95;103914;1295;61295;-85
2023/06/12 07:06:04;;;;;;;;;;;;;;;25.23;41.89;100547.94;104009;1293;61439;-85
2023/06/12 07:08:29;;;;;;;;;;;;;;;25.24;41.72;100553.05;103976;1289;61218;-85
2023/06/12 07:10:55;;;;;;;;;;;;;;;25.24;41.84;100554.06;103778;1294;61394;-85
2023/06/12 07:13:20;;;;;;;;;;;;;;;25.25;41.70;100555.13;103804;1295;198103;-84
2023/06/12 07:15:46;;;;;;;;;;;;;;;25.25;41.64;100549.67;103774;1290;61445;-84
2023/06/12 07:18:11;;;;;;;;;;;;;;;25.26;41.70;100551.41;104199;1290;65302;-84
2023/06/12 07:20:37;;;;;;;;;;;;;;;25.27;41.58;100554.78;104235;1294;61282;-84
2023/06/12 07:23:02;;;;;;;;;;;;;;;25.27;41.68;100556.21;104084;1295;61384;-83
2023/06/12 07:25:28;;;;;;;;;;;;;;;25.27;41.53;100554.52;103760;1300;61420;-84
2023/06/12 07:27:53;;;;;;;;;;;;;;;25.28;41.42;100557.91;104025;1290;61289;-84
2023/06/12 07:30:19;;;;;;;;;;;;;;;25.28;41.42;100555.36;104260;1294;63995;-84
2023/06/12 07:32:45;;;;;;;;;;;;;;;25.29;41.54;100559.23;104568;1289;61273;-84
2023/06/12 07:35:10;;;;;;;;;;;;;;;25.30;41.40;100565.88;104328;1289;61357;-84
2023/06/12 07:37:37;;;;;;;;;;;;;;;25.30;41.40;100559.70;104129;1289;61454;-84
2023/06/12 07:40:04;;;;;;;;;;;;;;;25.30;41.21;100556.60;104745;1288;62082;-84
2023/06/12 07:42:30;;;;;;;;;;;;;;;25.31;41.36;100559.98;106199;1289;60052;-85
2023/06/12 07:44:56;;;;;;;;;;;;;;;25.32;41.32;100565.46;104626;1289;62130;-84
2023/06/12 07:47:21;;;;;;;;;;;;;;;25.32;41.43;100563.81;103833;1288;60444;-84
2023/06/12 07:49:47;;;;;;;;;;;;;;;25.33;41.29;100567.17;103863;1295;62252;-84
2023/06/12 07:52:13;;;;;;;;;;;;;;;25.33;41.31;100563.59;103842;1289;63879;-84
2023/06/12 07:54:39;;;;;;;;;;;;;;;25.32;41.22;100560.01;103992;1292;64157;-84
2023/06/12 07:57:06;;;;;;;;;;;;;;;25.32;41.31;100563.65;104075;1290;62200;-84
2023/06/12 07:59:32;;;;;;;;;;;;;;;25.31;41.08;100570.19;103806;1293;62130;-84
2023/06/12 08:01:58;;;;;;;;;;;;;;;25.31;41.11;100572.02;104162;1291;60601;-84
2023/06/12 08:04:25;;;;;;;;;;;;;;;25.31;41.17;100564.45;104378;1289;62013;-84
2023/06/12 08:06:54;;;;;;;;;;;;;;;25.30;40.91;100566.73;104637;1289;62276;-84
2023/06/12 08:09:19;;;;;;;;;;;;;;;25.29;40.99;100566.64;104691;1289;61948;-84
2023/06/12 08:11:45;;;;;;;;;;;;;;;25.29;41.06;100567.05;104041;1295;62269;-84
2023/06/12 08:14:12;;;;;;;;;;;;;;;25.28;41.05;100563.45;104262;1288;62283;-84
2023/06/12 08:16:38;;;;;;;;;;;;;;;25.29;41.15;100564.48;104220;1292;62087;-84
2023/06/12 08:19:04;;;;;;;;;;;;;;;25.29;41.31;100561.07;103815;1293;62136;-84
2023/06/12 08:21:30;;;;;;;;;;;;;;;25.29;41.19;100565.02;103856;1289;62268;-85
2023/06/12 08:23:56;;;;;;;;;;;;;;;25.29;41.11;100561.98;103808;1293;62101;-84
2023/06/12 08:26:24;;;;;;;;;;;;;;;25.29;41.19;100562.34;104434;1289;62118;-85
2023/06/12 08:28:49;;;;;;;;;;;;;;;25.28;41.22;100560.05;104221;1289;62188;-85
2023/06/12 08:31:15;;;;;;;;;;;;;;;25.28;41.32;100560.04;104119;1294;62251;-84
2023/06/12 08:33:41;;;;;;;;;;;;;;;25.28;41.25;100559.13;104366;1293;62268;-85
2023/06/12 08:36:06;;;;;;;;;;;;;;;25.28;41.11;100564.73;104474;1287;75246;-84
2023/06/12 08:38:32;;;;;;;;;;;;;;;25.29;41.20;100562.69;104077;1289;62086;-85
2023/06/12 08:40:57;;;;;;;;;;;;;;;25.28;41.18;100562.92;104036;1289;62213;-85
2023/06/12 08:43:23;;;;;;;;;;;;;;;25.27;41.01;100559.23;103821;1293;62179;-85
2023/06/12 08:45:50;;;;;;;;;;;;;;;25.27;40.95;100559.56;103817;1291;63238;-84
2023/06/12 08:48:17;;;;;;;;;;;;;;;25.27;40.98;100564.62;103848;1288;62062;-85
2023/06/12 08:50:43;;;;;;;;;;;;;;;25.27;40.99;100562.86;103796;1289;62325;-84
2023/06/12 08:53:08;;;;;;;;;;;;;;;25.27;40.88;100561.37;103717;1289;62264;-84
2023/06/12 08:55:39;;;;;;;;;;;;;;;25.27;40.84;100562.80;103655;1287;64933;-85
2023/06/12 08:58:05;;;;;;;;;;;;;;;25.27;40.82;100562.28;103796;1289;67462;-84
2023/06/12 09:00:31;;;;;;;;;;;;;;;25.27;40.81;100556.68;103508;1294;63537;-84
2023/06/12 09:02:56;;;;;;;;;;;;;;;25.27;40.81;100550.98;103491;1289;62066;-84
2023/06/12 09:05:26;;;;;;;;;;;;;;;25.26;40.81;100544.91;103360;1289;62428;-84
2023/06/12 09:07:52;;;;;;;;;;;;;;;25.26;40.58;100545.98;103544;1294;66452;-84
2023/06/12 09:10:18;;;;;;;;;;;;;;;25.26;40.69;100542.38;104129;1289;62277;-85
2023/06/12 09:12:45;;;;;;;;;;;;;;;25.27;40.80;100543.92;103744;1294;62299;-84
2023/06/12 09:15:17;;;;;;;;;;;;;;;25.29;40.84;100542.52;103956;1291;62195;-85
2023/06/12 09:17:45;;;;;;;;;;;;;;;25.30;40.91;100544.37;103813;1288;67659;-85
2023/06/12 09:20:14;;;;;;;;;;;;;;;25.31;40.89;100539.26;104345;1288;62220;-84
2023/06/12 09:22:40;;;;;;;;;;;;;;;25.33;40.88;100537.67;104100;1287;62043;-85
2023/06/12 09:25:06;;;;;;;;;;;;;;;25.33;40.87;100540.48;103722;1297;62532;-85
2023/06/12 09:27:40;;;;;;;;;;;;;;;25.34;40.98;100536.63;103812;1298;62173;-84
2023/06/12 09:30:07;;;;;;;;;;;;;;;25.36;40.87;100539.20;104066;1292;62120;-85
2023/06/12 09:32:32;;;;;;;;;;;;;;;25.37;40.93;100535.86;103940;1291;62389;-84
2023/06/12 09:34:58;;;;;;;;;;;;;;;25.38;40.86;100536.48;104084;1292;62121;-84
2023/06/12 09:37:23;;;;;;;;;;;;;;;25.39;40.83;100543.42;103981;1292;62081;-85
2023/06/12 09:39:49;;;;;;;;;;;;;;;25.40;40.88;100540.45;104165;1291;62105;-85
2023/06/12 09:42:17;;;;;;;;;;;;;;;25.41;40.79;100536.70;103876;1291;62344;-84
2023/06/12 09:44:43;;;;;;;;;;;;;;;25.41;40.84;100536.31;103912;1296;63901;-84
2023/06/12 09:47:09;;;;;;;;;;;;;;;25.42;40.95;100532.09;103878;1296;63065;-84
2023/06/12 09:49:35;;;;;;;;;;;;;;;25.43;40.90;100528.23;104092;1293;60226;-84
2023/06/12 09:52:04;;;;;;;;;;;;;;;25.43;40.99;100530.19;104213;1292;63331;-85
2023/06/12 09:54:30;;;;;;;;;;;;;;;25.44;40.89;100531.59;104437;1292;62034;-85
2023/06/12 09:56:56;;;;;;;;;;;;;;;25.45;40.90;100528.27;104753;1289;62174;-85
2023/06/12 09:59:22;;;;;;;;;;;;;;;25.45;40.91;100525.72;105510;1289;61929;-85
2023/06/12 10:01:51;;;;;;;;;;;;;;;25.45;40.90;100526.09;105472;1289;60328;-85
2023/06/12 10:04:40;;;;;;;;;;;;;;;25.46;40.88;100520.80;105613;1291;62086;-84
2023/06/12 10:07:14;;;;;;;;;;;;;;;25.47;40.78;100521.27;105616;1289;64479;-84
2023/06/12 10:09:40;;;;;;;;;;;;;;;25.47;40.83;100523.73;105640;1288;66391;-85
2023/06/12 10:12:06;;;;;;;;;;;;;;;25.48;40.95;100525.10;105370;1292;61119;-85
2023/06/12 10:14:32;;;;;;;;;;;;;;;25.49;40.89;100524.30;105399;1289;62103;-85
2023/06/12 10:16:57;;;;;;;;;;;;;;;25.49;40.96;100517.73;104553;1291;60820;-84
2023/06/12 10:19:26;;;;;;;;;;;;;;;25.50;40.88;100517.83;103893;1289;62193;-84
2023/06/12 10:21:55;;;;;;;;;;;;;;;25.51;40.78;100517.73;104075;1288;61985;-85
2023/06/12 10:24:21;;;;;;;;;;;;;;;25.51;40.81;100515.27;104034;1288;62271;-84
2023/06/12 10:26:47;;;;;;;;;;;;;;;25.50;40.73;100518.38;104154;1290;63212;-85
2023/06/12 10:29:25;;;;;;;;;;;;;;;25.51;40.78;100512.94;103902;1291;62065;-84
2023/06/12 10:31:51;;;;;;;;;;;;;;;25.50;40.72;100510.46;103972;1287;62152;-84
2023/06/12 10:34:17;;;;;;;;;;;;;;;25.50;40.69;100512.83;103705;1289;62216;-84
2023/06/12 10:36:43;;;;;;;;;;;;;;;25.49;40.79;100508.37;103976;1287;62123;-84
2023/06/12 10:39:24;;;;;;;;;;;;;;;25.50;40.82;100507.80;104033;1291;62137;-84
2023/06/12 10:41:53;;;;;;;;;;;;;;;25.49;40.81;100501.16;103831;1289;62730;-85
2023/06/12 10:44:31;;;;;;;;;;;;;;;25.49;40.88;100505.55;103395;1289;62104;-85
2023/06/12 10:46:56;;;;;;;;;;;;;;;25.48;40.72;100507.25;103640;1289;64613;-84
2023/06/12 10:49:22;;;;;;;;;;;;;;;25.48;40.89;100505.66;103802;1293;62104;-84
2023/06/12 10:51:53;;;;;;;;;;;;;;;25.48;40.85;100495.20;103697;1288;62110;-83
2023/06/12 10:54:45;;;;;;;;;;;;;;;25.47;40.77;100493.64;103561;1290;62251;-84
2023/06/12 10:57:10;;;;;;;;;;;;;;;25.47;40.71;100496.73;103280;1295;65191;-84
2023/06/12 10:59:36;;;;;;;;;;;;;;;25.47;40.79;100496.95;103523;1295;62148;-84
2023/06/12 11:02:05;;;;;;;;;;;;;;;25.47;40.77;100489.37;103220;1295;62302;-84
2023/06/12 11:04:37;;;;;;;;;;;;;;;25.46;40.78;100492.81;103194;1297;62021;-85
2023/06/12 11:07:03;;;;;;;;;;;;;;;25.46;40.76;100486.38;103076;1295;73436;-85
2023/06/12 11:09:33;;;;;;;;;;;;;;;25.46;40.73;100488.91;103257;1295;62244;-85
2023/06/12 11:12:00;;;;;;;;;;;;;;;25.46;40.67;100490.13;103549;1294;62929;-85
2023/06/12 11:14:30;;;;;;;;;;;;;;;25.46;40.77;100485.48;104800;1295;59995;-85
2023/06/12 11:16:57;;;;;;;;;;;;;;;25.46;40.88;100481.01;103364;1294;64043;-85
2023/06/12 11:19:25;;;;;;;;;;;;;;;25.46;40.88;100469.06;103128;1295;63324;-85
2023/06/12 11:21:50;;;;;;;;;;;;;;;25.46;40.90;100471.22;103318;1294;62310;-85
2023/06/12 11:24:17;;;;;;;;;;;;;;;25.47;40.94;100474.23;103113;1294;62267;-84
2023/06/12 11:26:43;;;;;;;;;;;;;;;25.47;40.94;100470.63;104596;1296;62198;-84
2023/06/12 11:29:12;;;;;;;;;;;;;;;25.47;40.91;100469.37;102914;1294;62498;-84
2023/06/12 11:31:37;;;;;;;;;;;;;;;25.46;40.96;100472.48;102909;1294;63967;-84
2023/06/12 11:34:04;;;;;;;;;;;;;;;25.46;40.95;100470.82;103281;1292;62228;-84
2023/06/12 11:36:29;;;;;;;;;;;;;;;25.46;40.86;100464.17;103461;1289;62262;-85
2023/06/12 11:38:55;;;;;;;;;;;;;;;25.46;40.99;100458.59;103597;1287;62148;-85
2023/06/12 11:41:44;;;;;;;;;;;;;;;25.46;40.83;100466.56;103435;1287;63775;-85
2023/06/12 11:44:10;;;;;;;;;;;;;;;25.46;40.70;100459.70;102987;1298;62284;-85
2023/06/12 11:46:36;;;;;;;;;;;;;;;25.45;40.90;100458.33;102869;1297;63909;-84
2023/06/12 11:49:02;;;;;;;;;;;;;;;25.45;40.81;100460.15;102760;1301;62277;-84
2023/06/12 11:51:27;;;;;;;;;;;;;;;25.45;40.86;100460.35;102867;1297;63526;-85
2023/06/12 11:53:58;;;;;;;;;;;;;;;25.44;40.89;100454.98;102798;1296;62131;-84
2023/06/12 11:56:23;;;;;;;;;;;;;;;25.44;40.78;100454.82;102800;1297;64997;-85
2023/06/12 11:58:51;;;;;;;;;;;;;;;25.44;40.84;100453.89;102852;1294;62262;-85
2023/06/12 12:01:22;;;;;;;;;;;;;;;25.44;40.85;100453.02;102788;1295;62204;-85
2023/06/12 12:03:49;;;;;;;;;;;;;;;25.44;40.88;100451.06;102965;1297;62090;-85
2023/06/12 12:06:15;;;;;;;;;;;;;;;25.44;40.77;100451.09;103068;1300;62234;-83
2023/06/12 12:08:42;;;;;;;;;;;;;;;25.43;40.84;100443.39;103116;1298;62345;-83
2023/06/12 12:11:16;;;;;;;;;;;;;;;25.43;40.86;100444.63;102842;1298;62103;-84
2023/06/12 12:14:08;;;;;;;;;;;;;;;25.43;40.85;100438.86;102829;1300;62109;-84
2023/06/12 12:16:43;;;;;;;;;;;;;;;25.43;40.99;100433.08;102879;1296;65220;-84
2023/06/12 12:19:19;;;;;;;;;;;;;;;25.44;40.95;100436.30;102790;1295;67781;-84
2023/06/12 12:21:48;;;;;;;;;;;;;;;25.44;40.77;100433.56;103080;1289;62239;-84
2023/06/12 12:24:14;;;;;;;;;;;;;;;25.44;40.89;100427.11;103337;1289;63684;-84